createdAt,value
2022-08-19T00:02:03.481Z,14.70
2022-08-19T00:04:37.591Z,14.52
2022-08-19T00:07:06.571Z,14.48
2022-08-19T00:09:33.879Z,14.02
2022-08-19T00:12:01.327Z,14.75
2022-08-19T00:14:32.888Z,14.82
2022-08-19T00:17:00.417Z,15.13
2022-08-19T00:19:27.234Z,15.10
2022-08-19T00:21:54.117Z,16.58
2022-08-19T00:24:20.883Z,15.77
2022-08-19T00:26:48.277Z,14.98
2022-08-19T00:29:18.801Z,15.98
2022-08-19T00:31:46.837Z,15.90
2022-08-19T00:34:15.297Z,18.20
2022-08-19T00:36:43.671Z,15.82
2022-08-19T00:39:10.736Z,16.25
2022-08-19T00:41:38.769Z,15.98
2022-08-19T00:44:12.369Z,15.82
2022-08-19T00:46:41.586Z,16.40
2022-08-19T00:49:15.761Z,15.73
2022-08-19T00:51:45.628Z,13.85
2022-08-19T00:54:13.130Z,14.32
2022-08-19T00:56:41.688Z,15.73
2022-08-19T00:59:09.904Z,16.33
2022-08-19T01:01:42.875Z,15.43
2022-08-19T01:04:10.136Z,15.45
2022-08-19T01:06:38.717Z,15.65
2022-08-19T01:09:06.123Z,17.17
2022-08-19T01:11:36.308Z,14.93
2022-08-19T01:14:04.673Z,15.60
2022-08-19T01:16:33.438Z,16.48
2022-08-19T01:19:01.191Z,15.73
2022-08-19T01:21:41.334Z,17.25
2022-08-19T01:24:08.511Z,17.23
2022-08-19T01:26:44.590Z,16.23
2022-08-19T01:29:12.345Z,17.08
2022-08-19T01:31:40.168Z,17.38
2022-08-19T01:34:08.529Z,15.68
2022-08-19T01:36:43.219Z,16.08
2022-08-19T01:39:15.029Z,16.85
2022-08-19T01:41:41.877Z,17.77
2022-08-19T01:44:18.894Z,18.88
2022-08-19T01:46:48.204Z,16.98
2022-08-19T01:49:17.103Z,17.10
2022-08-19T01:51:43.853Z,16.42
2022-08-19T01:54:27.123Z,17.55
2022-08-19T01:57:02.217Z,17.55
2022-08-19T01:59:29.352Z,16.92
2022-08-19T02:01:56.171Z,16.48
2022-08-19T02:04:24.361Z,16.85
2022-08-19T02:06:51.668Z,15.65
2022-08-19T02:09:18.573Z,17.77
2022-08-19T02:11:45.318Z,17.70
2022-08-19T02:14:12.030Z,20.70
2022-08-19T02:16:39.285Z,19.15
2022-08-19T02:19:06.413Z,18.23
2022-08-19T02:21:34.651Z,20.50
2022-08-19T02:24:01.786Z,18.60
2022-08-19T02:26:28.782Z,18.63
2022-08-19T02:28:56.579Z,19.02
2022-08-19T02:31:25.859Z,18.92
2022-08-19T02:33:53.486Z,19.42
2022-08-19T02:36:24.840Z,18.98
2022-08-19T02:38:54.503Z,17.77
2022-08-19T02:41:26.798Z,20.85
2022-08-19T02:44:26.300Z,21.52
2022-08-19T02:46:42.650Z,20.77
2022-08-19T02:49:09.506Z,22.35
2022-08-19T02:51:41.606Z,20.77
2022-08-19T02:54:10.176Z,21.88
2022-08-19T02:56:38.615Z,23.15
2022-08-19T02:59:11.387Z,23.63
2022-08-19T03:01:41.550Z,24.33
2022-08-19T03:04:10.099Z,23.88
2022-08-19T03:06:39.568Z,23.95
2022-08-19T03:09:06.490Z,22.17
2022-08-19T03:11:34.302Z,22.60
2022-08-19T03:14:03.239Z,23.30
2022-08-19T03:16:33.935Z,23.73
2022-08-19T03:19:01.742Z,22.10
2022-08-19T03:21:31.764Z,21.90
2022-08-19T03:24:00.672Z,22.35
2022-08-19T03:26:27.678Z,23.55
2022-08-19T03:28:58.277Z,22.63
2022-08-19T03:31:43.843Z,21.20
2022-08-19T03:34:20.163Z,21.52
2022-08-19T03:36:50.487Z,20.52
2022-08-19T03:39:17.616Z,21.60
2022-08-19T03:41:48.492Z,23.00
2022-08-19T03:44:22.601Z,25.48
2022-08-19T03:46:52.971Z,24.33
2022-08-19T03:49:20.807Z,24.45
2022-08-19T03:51:49.497Z,24.02
2022-08-19T03:54:19.864Z,24.17
2022-08-19T03:56:49.610Z,23.33
2022-08-19T03:59:20.835Z,22.95
2022-08-19T04:01:47.896Z,25.65
2022-08-19T04:04:14.743Z,23.95
2022-08-19T04:06:41.558Z,23.45
2022-08-19T04:09:11.383Z,27.17
2022-08-19T04:11:50.951Z,26.13
2022-08-19T04:14:22.834Z,25.88
2022-08-19T04:16:50.119Z,26.92
2022-08-19T04:19:19.114Z,26.70
2022-08-19T04:21:49.109Z,24.45
2022-08-19T04:24:16.390Z,24.92
2022-08-19T04:26:43.555Z,24.15
2022-08-19T04:29:13.692Z,24.02
2022-08-19T04:31:41.919Z,23.73
2022-08-19T04:34:11.901Z,25.33
2022-08-19T04:36:42.114Z,25.70
2022-08-19T04:39:11.446Z,23.38
2022-08-19T04:41:57.097Z,25.58
2022-08-19T04:44:23.924Z,23.80
2022-08-19T04:46:52.100Z,23.98
2022-08-19T04:49:23.821Z,23.38
2022-08-19T04:51:55.131Z,24.48
2022-08-19T04:54:37.717Z,26.10
2022-08-19T04:57:08.447Z,23.58
2022-08-19T04:59:37.131Z,22.92
2022-08-19T05:02:05.257Z,22.92
2022-08-19T05:04:33.762Z,21.83
2022-08-19T05:07:02.305Z,22.60
2022-08-19T05:09:44.191Z,22.05
2022-08-19T05:12:18.158Z,22.30
2022-08-19T05:14:45.903Z,23.02
2022-08-19T05:17:26.996Z,22.85
2022-08-19T05:20:14.240Z,22.85
2022-08-19T05:22:41.816Z,21.27
2022-08-19T05:25:13.894Z,23.88
2022-08-19T05:27:42.294Z,22.63
2022-08-19T05:30:10.070Z,24.48
2022-08-19T05:32:37.036Z,23.92
2022-08-19T05:35:05.411Z,22.75
2022-08-19T05:37:32.188Z,23.60
2022-08-19T05:39:59.014Z,23.17
2022-08-19T05:42:26.458Z,21.77
2022-08-19T05:44:53.241Z,21.98
2022-08-19T05:47:21.031Z,22.63
2022-08-19T05:49:50.640Z,20.92
2022-08-19T05:52:18.956Z,20.88
2022-08-19T05:54:48.675Z,21.70
2022-08-19T05:57:20.189Z,21.15
2022-08-19T05:59:49.323Z,22.92
2022-08-19T06:02:20.133Z,20.95
2022-08-19T06:04:47.489Z,20.77
2022-08-19T06:07:14.510Z,20.92
2022-08-19T06:09:41.449Z,22.02
2022-08-19T06:12:10.607Z,21.65
2022-08-19T06:14:41.673Z,21.55
2022-08-19T06:17:09.135Z,21.23
2022-08-19T06:19:40.918Z,20.83
2022-08-19T06:22:08.562Z,20.70
2022-08-19T06:24:36.343Z,19.50
2022-08-19T06:27:06.781Z,20.00
2022-08-19T06:29:34.382Z,20.67
2022-08-19T06:32:03.918Z,20.52
2022-08-19T06:34:33.590Z,20.10
2022-08-19T06:37:04.499Z,18.10
2022-08-19T06:39:35.283Z,20.70
2022-08-19T06:42:07.119Z,20.65
2022-08-19T06:44:43.204Z,19.75
2022-08-19T06:47:14.412Z,24.00
2022-08-19T06:49:42.369Z,23.20
2022-08-19T06:52:13.924Z,22.20
2022-08-19T06:54:55.470Z,19.65
2022-08-19T06:57:23.818Z,20.98
2022-08-19T06:59:50.715Z,19.70
2022-08-19T07:04:45.167Z,18.52
2022-08-19T07:07:21.545Z,17.83
2022-08-19T07:09:57.921Z,17.75
2022-08-19T07:12:33.824Z,16.98
2022-08-19T07:15:05.067Z,15.80
2022-08-19T07:17:34.630Z,16.25
2022-08-19T07:20:05.014Z,16.83
2022-08-19T07:22:34.938Z,16.55
2022-08-19T07:25:03.693Z,17.23
2022-08-19T07:27:30.893Z,18.55
2022-08-19T07:30:00.504Z,17.23
2022-08-19T07:32:27.739Z,15.95
2022-08-19T07:34:55.172Z,15.48
2022-08-19T07:37:24.196Z,14.38
2022-08-19T07:39:50.999Z,15.65
2022-08-19T07:42:18.365Z,16.10
2022-08-19T07:44:50.096Z,15.18
2022-08-19T07:47:49.837Z,13.93
2022-08-19T07:50:09.230Z,13.40
2022-08-19T07:52:39.540Z,14.15
2022-08-19T07:55:41.708Z,14.10
2022-08-19T07:57:55.398Z,14.63
2022-08-19T08:00:24.467Z,14.57
2022-08-19T08:02:55.842Z,13.68
2022-08-19T08:05:44.228Z,14.50
2022-08-19T08:08:31.391Z,12.73
2022-08-19T08:10:59.441Z,13.20
2022-08-19T08:13:28.056Z,13.00
2022-08-19T08:15:55.979Z,11.15
2022-08-19T08:18:27.652Z,11.93
2022-08-19T08:20:55.987Z,12.15
2022-08-19T08:23:23.221Z,10.40
2022-08-19T08:25:50.680Z,11.70
2022-08-19T08:28:18.679Z,10.52
2022-08-19T08:30:48.942Z,10.98
2022-08-19T08:33:33.069Z,10.37
2022-08-19T08:36:10.696Z,10.38
2022-08-19T08:38:41.900Z,11.30
2022-08-19T08:43:51.731Z,10.40
2022-08-19T08:46:32.427Z,10.15
2022-08-19T08:49:14.531Z,10.77
2022-08-19T08:51:48.330Z,10.45
2022-08-19T08:54:28.463Z,9.95
2022-08-19T08:56:55.898Z,8.95
2022-08-19T08:59:37.479Z,10.05
2022-08-19T09:02:06.002Z,9.02
2022-08-19T09:04:32.842Z,9.57
2022-08-19T09:07:18.727Z,9.73
2022-08-19T09:10:17.893Z,8.02
2022-08-19T09:13:23.216Z,7.55
2022-08-19T09:16:03.417Z,7.80
2022-08-19T09:18:48.216Z,7.47
2022-08-19T09:21:17.192Z,7.97
2022-08-19T09:23:44.504Z,8.23
2022-08-19T09:26:14.524Z,7.68
2022-08-19T09:28:48.682Z,7.90
2022-08-19T09:31:18.565Z,7.78
2022-08-19T09:33:45.530Z,6.60
2022-08-19T09:36:14.069Z,7.40
2022-08-19T09:38:51.493Z,6.68
2022-08-19T09:41:22.709Z,6.60
2022-08-19T09:43:54.387Z,6.30
2022-08-19T09:46:24.393Z,6.00
2022-08-19T09:48:53.093Z,6.32
2022-08-19T09:51:25.533Z,6.50
2022-08-19T09:53:54.921Z,6.10
2022-08-19T09:56:23.306Z,6.60
2022-08-19T09:58:51.334Z,6.35
2022-08-19T10:01:23.963Z,6.60
2022-08-19T10:03:54.275Z,6.97
2022-08-19T10:06:46.815Z,6.20
2022-08-19T10:09:12.110Z,5.80
2022-08-19T10:11:48.786Z,6.45
2022-08-19T10:14:23.187Z,5.72
2022-08-19T10:16:50.395Z,5.22
2022-08-19T10:19:25.825Z,5.55
2022-08-19T10:21:55.661Z,5.90
2022-08-19T10:24:28.959Z,6.30
2022-08-19T10:26:58.950Z,5.38
2022-08-19T10:29:31.973Z,5.43
2022-08-19T10:32:02.697Z,5.45
2022-08-19T10:34:30.889Z,5.57
2022-08-19T10:37:01.070Z,6.10
2022-08-19T10:39:42.461Z,6.60
2022-08-19T10:42:11.983Z,6.03
2022-08-19T10:44:38.737Z,5.20
2022-08-19T10:47:24.446Z,6.68
2022-08-19T10:50:11.698Z,5.78
2022-08-19T10:52:50.222Z,5.45
2022-08-19T10:55:40.996Z,6.97
2022-08-19T10:58:13.335Z,6.10
2022-08-19T11:00:41.338Z,6.78
2022-08-19T11:03:08.159Z,6.60
2022-08-19T11:05:40.403Z,6.95
2022-08-19T11:10:50.993Z,6.35
2022-08-19T11:13:17.707Z,6.20
2022-08-19T11:15:45.004Z,6.40
2022-08-19T11:18:13.253Z,6.28
2022-08-19T11:20:40.376Z,5.85
2022-08-19T11:23:07.365Z,6.32
2022-08-19T11:25:35.469Z,6.07
2022-08-19T11:28:02.653Z,6.07
2022-08-19T11:30:29.387Z,6.47
2022-08-19T11:32:56.615Z,6.72
2022-08-19T11:35:24.193Z,6.90
2022-08-19T11:37:51.099Z,6.85
2022-08-19T11:40:18.030Z,7.72
2022-08-19T11:42:57.607Z,7.70
2022-08-19T11:45:25.862Z,8.30
2022-08-19T11:47:53.044Z,8.13
2022-08-19T11:50:20.885Z,9.15
2022-08-19T11:52:48.003Z,8.27
2022-08-19T11:55:15.297Z,8.27
2022-08-19T11:57:43.484Z,7.43
2022-08-19T12:00:13.413Z,8.07
2022-08-19T12:02:40.558Z,9.23
2022-08-19T12:05:12.186Z,8.27
2022-08-19T12:07:44.622Z,8.38
2022-08-19T12:10:11.743Z,8.10
2022-08-19T12:12:43.694Z,7.32
2022-08-19T12:15:11.937Z,7.57
2022-08-19T12:17:39.494Z,6.93
2022-08-19T12:20:07.752Z,7.75
2022-08-19T12:22:35.848Z,7.97
2022-08-19T12:25:02.697Z,7.53
2022-08-19T12:27:40.208Z,6.78
2022-08-19T12:30:11.249Z,7.40
2022-08-19T12:32:38.424Z,7.13
2022-08-19T12:35:06.507Z,7.05
2022-08-19T12:37:33.517Z,6.35
2022-08-19T12:40:00.634Z,5.45
2022-08-19T12:42:27.695Z,6.40
2022-08-19T12:44:54.533Z,6.90
2022-08-19T12:47:21.960Z,7.05
2022-08-19T12:49:54.325Z,6.32
2022-08-19T12:52:23.954Z,6.05
2022-08-19T12:54:54.326Z,6.97
2022-08-19T12:57:29.889Z,8.45
2022-08-19T13:00:03.445Z,7.47
2022-08-19T13:02:33.086Z,7.38
2022-08-19T13:05:09.064Z,6.65
2022-08-19T13:07:36.411Z,6.72
2022-08-19T13:10:04.506Z,6.40
2022-08-19T13:12:31.397Z,5.82
2022-08-19T13:14:58.082Z,6.22
2022-08-19T13:17:25.449Z,5.32
2022-08-19T13:19:52.459Z,5.65
2022-08-19T13:22:19.291Z,5.93
2022-08-19T13:24:47.199Z,6.15
2022-08-19T13:27:14.468Z,6.22
2022-08-19T13:30:02.729Z,5.45
2022-08-19T13:32:49.010Z,5.05
2022-08-19T13:35:17.067Z,5.38
2022-08-19T13:37:45.673Z,5.30
2022-08-19T13:40:19.293Z,5.07
2022-08-19T13:42:48.596Z,5.07
2022-08-19T13:45:27.018Z,4.82
2022-08-19T13:47:59.143Z,4.15
2022-08-19T13:50:32.595Z,3.88
2022-08-19T13:52:59.931Z,3.72
2022-08-19T13:55:27.879Z,3.90
2022-08-19T13:57:56.578Z,4.35
2022-08-19T14:00:27.279Z,4.13
2022-08-19T14:02:57.585Z,4.22
2022-08-19T14:05:26.651Z,3.63
2022-08-19T14:07:54.213Z,4.43
2022-08-19T14:10:22.844Z,3.97
2022-08-19T14:12:49.881Z,4.10
2022-08-19T14:15:17.049Z,4.13
2022-08-19T14:17:45.480Z,4.20
2022-08-19T14:20:17.832Z,4.00
2022-08-19T14:22:47.510Z,4.38
2022-08-19T14:25:21.748Z,4.05
2022-08-19T14:27:49.156Z,4.28
2022-08-19T14:30:22.009Z,3.63
2022-08-19T14:32:48.827Z,3.67
2022-08-19T14:35:17.100Z,4.70
2022-08-19T14:37:56.081Z,3.95
2022-08-19T14:40:26.810Z,3.95
2022-08-19T14:43:04.818Z,4.25
2022-08-19T14:45:37.461Z,4.25
2022-08-19T14:48:05.890Z,4.10
2022-08-19T14:50:33.048Z,4.10
2022-08-19T14:53:09.087Z,4.13
2022-08-19T14:55:45.781Z,4.18
2022-08-19T14:58:28.482Z,4.47
2022-08-19T15:00:58.145Z,5.05
2022-08-19T15:03:25.129Z,4.50
2022-08-19T15:05:52.273Z,4.53
2022-08-19T15:08:19.092Z,4.82
2022-08-19T15:10:46.798Z,3.85
2022-08-19T15:13:13.541Z,4.07
2022-08-19T15:15:40.617Z,3.95
2022-08-19T15:18:07.425Z,4.30
2022-08-19T15:20:34.262Z,3.95
2022-08-19T15:23:01.365Z,7.47
2022-08-19T15:25:28.389Z,3.80
2022-08-19T15:27:55.295Z,4.10
2022-08-19T15:30:25.702Z,3.67
2022-08-19T15:32:55.765Z,3.63
2022-08-19T15:35:23.403Z,3.97
2022-08-19T15:37:51.779Z,3.80
2022-08-19T15:40:19.862Z,3.90
2022-08-19T15:42:47.702Z,4.07
2022-08-19T15:45:16.065Z,4.15
2022-08-19T15:47:42.875Z,4.50
2022-08-19T15:50:15.372Z,3.70
2022-08-19T15:52:57.132Z,3.90
2022-08-19T15:55:32.965Z,4.10
2022-08-19T15:58:29.505Z,4.40
2022-08-19T16:01:20.465Z,22.50
2022-08-19T16:06:47.805Z,4.00
2022-08-19T16:09:16.050Z,4.07
2022-08-19T16:11:45.934Z,4.15
2022-08-19T16:14:18.495Z,3.95
2022-08-19T16:16:47.072Z,4.45
2022-08-19T16:19:16.583Z,4.68
2022-08-19T16:21:49.312Z,3.88
2022-08-19T16:24:19.688Z,3.95
2022-08-19T16:26:47.364Z,4.50
2022-08-19T16:29:15.577Z,3.65
2022-08-19T16:31:55.918Z,3.80
2022-08-19T16:34:23.843Z,4.65
2022-08-19T16:36:51.189Z,4.13
2022-08-19T16:39:18.130Z,3.95
2022-08-19T16:41:46.105Z,4.00
2022-08-19T16:44:14.962Z,4.25
2022-08-19T16:46:41.802Z,3.85
2022-08-19T16:49:10.527Z,4.22
2022-08-19T16:51:38.836Z,3.95
2022-08-19T16:54:06.195Z,3.85
2022-08-19T16:56:33.231Z,4.22
2022-08-19T16:59:00.123Z,4.20
2022-08-19T17:01:27.995Z,4.30
2022-08-19T17:03:55.779Z,3.88
2022-08-19T17:06:26.422Z,4.55
2022-08-19T17:08:55.799Z,4.25
2022-08-19T17:11:24.430Z,4.82
2022-08-19T17:13:51.634Z,4.13
2022-08-19T17:16:25.009Z,7.90
2022-08-19T17:18:53.184Z,7.85
2022-08-19T17:21:27.937Z,4.80
2022-08-19T17:23:55.866Z,11.05
2022-08-19T17:26:23.251Z,4.68
2022-08-19T17:28:52.178Z,4.38
2022-08-19T17:31:22.771Z,3.88
2022-08-19T17:33:50.074Z,4.47
2022-08-19T17:36:25.342Z,4.60
2022-08-19T17:38:55.208Z,4.30
2022-08-19T17:41:24.179Z,4.30
2022-08-19T17:43:51.193Z,3.92
2022-08-19T17:46:19.327Z,4.25
2022-08-19T17:48:52.543Z,3.92
2022-08-19T17:51:25.490Z,4.10
2022-08-19T17:53:53.832Z,4.20
2022-08-19T17:56:21.705Z,4.25
2022-08-19T17:58:54.420Z,4.50
2022-08-19T18:01:35.504Z,4.65
2022-08-19T18:04:17.003Z,3.83
2022-08-19T18:06:46.885Z,3.78
2022-08-19T18:09:20.640Z,3.92
2022-08-19T18:11:47.848Z,3.95
2022-08-19T18:14:19.862Z,4.18
2022-08-19T18:16:46.750Z,4.13
2022-08-19T18:19:13.691Z,4.50
2022-08-19T18:21:40.852Z,4.07
2022-08-19T18:24:07.991Z,4.05
2022-08-19T18:26:34.865Z,4.00
2022-08-19T18:29:01.933Z,4.50
2022-08-19T18:31:30.016Z,4.20
2022-08-19T18:33:57.132Z,4.70
2022-08-19T18:36:52.044Z,4.38
2022-08-19T18:39:29.561Z,4.05
2022-08-19T18:42:32.209Z,4.30
2022-08-19T18:45:17.407Z,5.00
2022-08-19T18:48:02.733Z,4.78
2022-08-19T18:50:29.789Z,4.25
2022-08-19T18:52:56.633Z,4.28
2022-08-19T18:55:23.562Z,3.92
2022-08-19T18:57:51.412Z,4.10
2022-08-19T19:00:19.496Z,4.30
2022-08-19T19:02:46.766Z,4.20
2022-08-19T19:05:15.130Z,4.35
2022-08-19T19:07:42.681Z,4.85
2022-08-19T19:10:09.743Z,4.50
2022-08-19T19:12:42.699Z,4.72
2022-08-19T19:15:09.865Z,4.82
2022-08-19T19:17:36.944Z,4.35
2022-08-19T19:20:05.038Z,4.50
2022-08-19T19:22:31.822Z,5.65
2022-08-19T19:24:59.429Z,4.95
2022-08-19T19:27:26.522Z,4.28
2022-08-19T19:29:53.466Z,5.55
2022-08-19T19:32:23.653Z,4.80
2022-08-19T19:34:50.411Z,4.85
2022-08-19T19:37:17.376Z,4.22
2022-08-19T19:39:46.151Z,4.45
2022-08-19T19:42:19.819Z,4.90
2022-08-19T19:44:49.223Z,4.63
2022-08-19T19:47:17.398Z,4.53
2022-08-19T19:50:12.569Z,4.53
2022-08-19T19:52:39.005Z,4.80
2022-08-19T19:55:06.154Z,4.43
2022-08-19T19:57:33.177Z,4.70
2022-08-19T20:00:00.436Z,4.45
2022-08-19T20:02:27.442Z,4.80
2022-08-19T20:04:56.217Z,4.70
2022-08-19T20:07:42.943Z,4.47
2022-08-19T20:10:09.772Z,4.43
2022-08-19T20:12:36.519Z,4.70
2022-08-19T20:15:04.778Z,4.57
2022-08-19T20:17:32.533Z,4.65
2022-08-19T20:19:59.677Z,4.68
2022-08-19T20:22:26.651Z,5.53
2022-08-19T20:24:53.805Z,6.13
2022-08-19T20:27:20.997Z,6.15
2022-08-19T20:29:52.759Z,5.75
2022-08-19T20:32:19.635Z,5.68
2022-08-19T20:34:49.010Z,6.30
2022-08-19T20:37:16.234Z,5.97
2022-08-19T20:39:43.124Z,6.35
2022-08-19T20:42:09.950Z,6.00
2022-08-19T20:44:37.707Z,6.10
2022-08-19T20:47:04.635Z,6.00
2022-08-19T20:49:31.859Z,6.20
2022-08-19T20:51:58.658Z,5.63
2022-08-19T20:54:26.032Z,6.18
2022-08-19T20:56:53.216Z,6.30
2022-08-19T20:59:20.605Z,6.20
2022-08-19T21:01:48.180Z,6.70
2022-08-19T21:04:15.294Z,6.50
2022-08-19T21:06:45.524Z,5.97
2022-08-19T21:09:13.650Z,6.20
2022-08-19T21:11:40.503Z,5.93
2022-08-19T21:14:08.028Z,6.57
2022-08-19T21:16:34.844Z,6.13
2022-08-19T21:19:01.643Z,6.43
2022-08-19T21:21:28.713Z,5.63
2022-08-19T21:23:55.425Z,6.10
2022-08-19T21:26:22.553Z,6.85
2022-08-19T21:28:49.488Z,6.15
2022-08-19T21:31:17.892Z,5.93
2022-08-19T21:33:45.039Z,6.15
2022-08-19T21:36:11.854Z,5.90
2022-08-19T21:38:40.589Z,5.85
2022-08-19T21:41:07.418Z,6.00
2022-08-19T21:43:35.726Z,6.30
2022-08-19T21:46:02.552Z,5.53
2022-08-19T21:48:29.339Z,6.75
2022-08-19T21:50:56.122Z,6.25
2022-08-19T21:53:23.163Z,6.40
2022-08-19T21:55:53.653Z,6.38
2022-08-19T21:58:28.105Z,6.10
2022-08-19T22:00:59.113Z,6.80
2022-08-19T22:03:26.986Z,6.88
2022-08-19T22:05:53.786Z,5.78
2022-08-19T22:08:20.546Z,6.38
2022-08-19T22:10:49.520Z,6.43
2022-08-19T22:13:18.078Z,5.95
2022-08-19T22:15:45.713Z,6.30
2022-08-19T22:18:13.635Z,5.80
2022-08-19T22:20:40.595Z,6.28
2022-08-19T22:23:07.885Z,5.80
2022-08-19T22:25:39.518Z,6.95
2022-08-19T22:28:10.860Z,6.43
2022-08-19T22:30:41.780Z,6.38
2022-08-19T22:33:13.811Z,6.40
2022-08-19T22:35:41.811Z,6.65
2022-08-19T22:38:10.785Z,5.88
2022-08-19T22:40:39.918Z,6.30
2022-08-19T22:43:15.047Z,6.10
2022-08-19T22:45:43.476Z,5.60
2022-08-19T22:48:13.019Z,5.95
2022-08-19T22:50:41.785Z,6.70
2022-08-19T22:53:09.971Z,7.07
2022-08-19T22:55:37.961Z,6.20
2022-08-19T22:58:05.130Z,6.07
2022-08-19T23:00:32.700Z,6.30
2022-08-19T23:02:59.597Z,6.30
2022-08-19T23:05:29.039Z,6.00
2022-08-19T23:07:57.825Z,6.25
2022-08-19T23:10:27.227Z,6.55
2022-08-19T23:12:57.650Z,6.13
2022-08-19T23:15:27.924Z,6.70
2022-08-19T23:17:57.361Z,6.03
2022-08-19T23:20:27.894Z,5.38
2022-08-19T23:22:56.199Z,5.60
2022-08-19T23:25:26.627Z,5.35
2022-08-19T23:28:12.258Z,5.90
2022-08-19T23:30:43.646Z,5.10
2022-08-19T23:36:18.967Z,5.40
2022-08-19T23:38:48.210Z,5.78
2022-08-19T23:41:17.079Z,5.25
2022-08-19T23:43:44.483Z,4.70
2022-08-19T23:46:13.327Z,4.68
2022-08-19T23:48:40.427Z,5.80
2022-08-19T23:51:10.356Z,6.32
2022-08-19T23:53:39.093Z,5.38
2022-08-19T23:56:10.053Z,5.05
2022-08-19T23:58:37.955Z,5.57
